Time;durP1;ratioP1;P1;durP2;ratioP2;P2;SDS_P1;SDS_P2;PMS_P1;PMS_P2;Temp;Humidity;BMP_temperature;BMP_pressure;BME280_temperature;BME280_humidity;BME280_pressure;Samples;Min_cycle;Max_cycle;Signal;HPM_P1;HPM_P2
2023/05/04 00:02:05;;;;;;;11.77;7.82;;;7.40;99.90;;;;;;5070941;28;20450;-50
2023/05/04 00:04:32;;;;;;;12.05;6.95;;;7.50;99.90;;;;;;5093742;28;20580;-48
2023/05/04 00:06:59;;;;;;;11.98;7.57;;;7.50;99.90;;;;;;5106646;28;20085;-48
2023/05/04 00:09:25;;;;;;;12.68;7.35;;;7.60;99.90;;;;;;5106059;28;20067;-47
2023/05/04 00:11:52;;;;;;;14.50;7.30;;;7.60;99.90;;;;;;5071407;28;20083;-47
2023/05/04 00:14:19;;;;;;;11.63;7.43;;;7.70;99.90;;;;;;5091669;28;20124;-48
2023/05/04 00:16:46;;;;;;;10.18;6.70;;;7.70;99.90;;;;;;5103470;28;20047;-47
2023/05/04 00:19:12;;;;;;;15.15;7.65;;;7.70;99.90;;;;;;5103308;28;20076;-47
2023/05/04 00:21:39;;;;;;;9.93;6.90;;;7.70;99.90;;;;;;5076632;28;20101;-48
2023/05/04 00:24:06;;;;;;;11.20;7.30;;;7.70;99.90;;;;;;5103279;28;20461;-47
2023/05/04 00:26:33;;;;;;;13.38;7.93;;;7.70;99.90;;;;;;5110590;28;20105;-48
2023/05/04 00:28:59;;;;;;;11.23;8.00;;;7.70;99.90;;;;;;5099979;28;20127;-48
2023/05/04 00:31:27;;;;;;;11.82;7.70;;;7.70;99.90;;;;;;5093291;28;20043;-48
2023/05/04 00:33:54;;;;;;;11.80;7.20;;;7.70;99.90;;;;;;5099094;28;20045;-48
2023/05/04 00:36:21;;;;;;;13.15;7.30;;;7.70;99.90;;;;;;5067552;28;20086;-47
2023/05/04 00:38:51;;;;;;;7.57;5.18;;;7.80;99.90;;;;;;5085945;28;20493;-45
2023/05/04 00:41:19;;;;;;;10.05;6.78;;;7.80;99.90;;;;;;5057932;28;20493;-47
2023/05/04 00:43:47;;;;;;;11.40;6.63;;;7.80;99.90;;;;;;5086014;28;20101;-48
2023/05/04 00:46:14;;;;;;;11.35;6.68;;;7.70;99.90;;;;;;5070933;28;20054;-50
2023/05/04 00:48:41;;;;;;;12.15;6.45;;;7.70;99.90;;;;;;5069975;28;20075;-48
2023/05/04 00:51:10;;;;;;;11.07;7.18;;;7.70;99.90;;;;;;5082758;28;20035;-47
2023/05/04 00:53:38;;;;;;;12.57;6.97;;;7.70;99.90;;;;;;5059123;28;20052;-49
2023/05/04 00:56:05;;;;;;;9.70;6.85;;;7.70;99.90;;;;;;5108097;28;20039;-49
2023/05/04 00:58:33;;;;;;;13.88;7.32;;;7.60;99.90;;;;;;5087718;28;20040;-48
2023/05/04 01:01:01;;;;;;;14.85;6.95;;;7.60;99.90;;;;;;5059071;28;20056;-48
2023/05/04 01:03:28;;;;;;;13.00;8.05;;;7.50;99.90;;;;;;5081890;28;20115;-47
2023/05/04 01:06:33;;;;;;;11.10;7.43;;;7.50;99.90;;;;;;5091030;28;20477;-48
2023/05/04 01:09:11;;;;;;;12.10;6.72;;;7.50;99.90;;;;;;5034525;28;20052;-48
2023/05/04 01:12:01;;;;;;;11.18;6.03;;;7.40;99.90;;;;;;5092906;28;20065;-47
2023/05/04 01:14:29;;;;;;;12.90;7.57;;;7.40;99.90;;;;;;5052363;28;20040;-47
2023/05/04 01:17:01;;;;;;;10.48;6.75;;;7.40;99.90;;;;;;5051908;28;20062;-47
2023/05/04 01:19:28;;;;;;;13.55;7.47;;;7.40;99.90;;;;;;5051835;28;20053;-47
2023/05/04 01:21:55;;;;;;;12.68;6.63;;;7.40;99.90;;;;;;5070665;28;20044;-47
2023/05/04 01:24:24;;;;;;;15.63;8.73;;;7.30;99.90;;;;;;5102191;28;20488;-47
2023/05/04 01:27:05;;;;;;;13.95;8.25;;;7.30;99.90;;;;;;5079400;28;20102;-47
2023/05/04 01:29:44;;;;;;;12.95;8.30;;;7.30;99.90;;;;;;5067570;28;20070;-47
2023/05/04 01:32:13;;;;;;;13.52;8.25;;;7.30;99.90;;;;;;5061015;28;20105;-47
2023/05/04 01:34:41;;;;;;;14.90;9.38;;;7.20;99.90;;;;;;5052249;28;20397;-48
2023/05/04 01:37:08;;;;;;;18.25;8.93;;;7.20;99.90;;;;;;5070040;28;20037;-44
2023/05/04 01:39:35;;;;;;;14.20;8.27;;;7.20;99.90;;;;;;5063902;28;20045;-47
2023/05/04 01:42:02;;;;;;;16.92;9.80;;;7.20;99.90;;;;;;5070043;28;20079;-47
2023/05/04 01:44:28;;;;;;;14.82;8.82;;;7.10;99.90;;;;;;5065972;28;20051;-47
2023/05/04 01:46:55;;;;;;;16.40;8.73;;;7.10;99.90;;;;;;5095397;28;20036;-47
2023/05/04 01:49:22;;;;;;;16.73;9.15;;;7.00;99.90;;;;;;5092185;28;20044;-47
2023/05/04 01:51:49;;;;;;;17.20;9.23;;;7.00;99.90;;;;;;5082592;28;20086;-47
2023/05/04 01:54:16;;;;;;;17.48;9.57;;;7.00;99.90;;;;;;5063856;28;20130;-48
2023/05/04 01:56:43;;;;;;;19.50;9.85;;;6.90;99.90;;;;;;5080750;28;20101;-48
2023/05/04 01:59:10;;;;;;;13.95;8.88;;;6.90;99.90;;;;;;5057750;28;20044;-47
2023/05/04 02:01:39;;;;;;;15.38;8.55;;;6.70;99.90;;;;;;5060723;28;20552;-47
2023/05/04 02:04:06;;;;;;;14.32;8.35;;;6.60;99.90;;;;;;5052376;28;20143;-47
2023/05/04 02:06:33;;;;;;;16.02;8.55;;;6.60;99.90;;;;;;5045125;28;20037;-48
2023/05/04 02:08:59;;;;;;;18.65;8.15;;;6.60;99.90;;;;;;5071755;28;20553;-48
2023/05/04 02:11:26;;;;;;;11.18;7.63;;;6.70;99.90;;;;;;5076713;28;20093;-47
2023/05/04 02:13:53;;;;;;;13.30;7.90;;;6.70;99.90;;;;;;5052397;28;20036;-47
2023/05/04 02:16:20;;;;;;;10.95;7.38;;;6.60;99.90;;;;;;5054800;28;20049;-48
2023/05/04 02:18:46;;;;;;;13.15;6.78;;;6.60;99.90;;;;;;5051769;28;20055;-48
2023/05/04 02:21:14;;;;;;;13.40;7.25;;;6.60;99.90;;;;;;5060692;28;20040;-48
2023/05/04 02:23:42;;;;;;;12.18;7.53;;;6.60;99.90;;;;;;5067182;28;20416;-47
2023/05/04 02:26:10;;;;;;;13.00;7.78;;;6.60;99.90;;;;;;5064649;28;20465;-48
2023/05/04 02:28:36;;;;;;;11.70;7.50;;;6.60;99.90;;;;;;5091076;28;20035;-47
2023/05/04 02:31:03;;;;;;;12.00;7.90;;;6.60;99.90;;;;;;5075518;28;20085;-47
2023/05/04 02:33:30;;;;;;;7.68;5.05;;;6.60;99.90;;;;;;5107790;28;20492;-47
2023/05/04 02:35:56;;;;;;;13.60;7.22;;;6.60;99.90;;;;;;5055202;28;20071;-47
2023/05/04 02:38:25;;;;;;;12.60;7.60;;;6.50;99.90;;;;;;5078713;28;20490;-47
2023/05/04 02:40:51;;;;;;;12.55;7.50;;;6.40;99.90;;;;;;5067728;28;20097;-48
2023/05/04 02:43:18;;;;;;;14.05;7.78;;;6.40;99.90;;;;;;5069771;28;20503;-47
2023/05/04 02:45:45;;;;;;;11.43;8.10;;;6.30;99.90;;;;;;5105271;28;20070;-47
2023/05/04 02:48:11;;;;;;;14.60;7.57;;;6.30;99.90;;;;;;5106326;28;20119;-47
2023/05/04 02:50:38;;;;;;;10.75;7.43;;;6.20;99.90;;;;;;5055823;28;20064;-48
2023/05/04 02:53:05;;;;;;;14.40;8.00;;;6.10;99.90;;;;;;5076449;22;20091;-46
2023/05/04 02:55:31;;;;;;;15.75;7.38;;;6.20;99.90;;;;;;5053456;28;20044;-46
2023/05/04 02:57:58;;;;;;;10.25;6.60;;;6.10;99.90;;;;;;5047189;28;20037;-46
2023/05/04 03:00:25;;;;;;;14.15;7.22;;;6.20;99.90;;;;;;5075409;28;20051;-46
2023/05/04 03:02:52;;;;;;;13.50;7.70;;;6.10;99.90;;;;;;5069083;28;20032;-46
2023/05/04 03:05:19;;;;;;;13.75;7.78;;;6.10;99.90;;;;;;5020238;28;20064;-46
2023/05/04 03:07:46;;;;;;;17.52;7.70;;;6.10;99.90;;;;;;5048189;28;20052;-46
2023/05/04 03:10:12;;;;;;;12.25;7.00;;;6.10;99.90;;;;;;5032981;28;20103;-46
2023/05/04 03:12:39;;;;;;;16.15;7.75;;;6.10;99.90;;;;;;5033709;28;20041;-46
2023/05/04 03:15:07;;;;;;;18.17;7.50;;;6.10;99.90;;;;;;5034667;28;20049;-46
2023/05/04 03:17:34;;;;;;;12.18;7.38;;;6.10;99.90;;;;;;5034137;28;20493;-46
2023/05/04 03:20:01;;;;;;;;;;;6.10;99.90;;;;;;5033039;28;20073;-46
2023/05/04 03:22:31;;;;;;;10.68;6.85;;;6.20;99.90;;;;;;5037897;28;20404;-47
2023/05/04 03:24:58;;;;;;;;;;;6.20;99.90;;;;;;5046107;28;20037;-45
2023/05/04 03:27:24;;;;;;;12.18;7.45;;;6.10;99.90;;;;;;5033769;28;19925;-46
2023/05/04 03:29:51;;;;;;;13.77;7.95;;;6.10;99.90;;;;;;5029089;28;20045;-45
2023/05/04 03:32:19;;;;;;;12.85;6.85;;;6.10;99.90;;;;;;5031577;28;20463;-46
2023/05/04 03:34:46;;;;;;;10.77;7.00;;;6.00;99.90;;;;;;5071866;28;20035;-46
2023/05/04 03:37:14;;;;;;;11.15;6.75;;;5.90;99.90;;;;;;5042806;28;20513;-46
2023/05/04 03:39:41;;;;;;;11.50;7.70;;;5.90;99.90;;;;;;5033614;28;20053;-46
2023/05/04 03:42:08;;;;;;;11.32;7.35;;;5.90;99.90;;;;;;5033893;28;20067;-46
2023/05/04 03:44:35;;;;;;;13.57;7.20;;;5.90;99.90;;;;;;5052401;28;20087;-46
2023/05/04 03:47:02;;;;;;;9.38;5.85;;;5.90;99.90;;;;;;5040834;28;20045;-46
2023/05/04 03:49:29;;;;;;;15.95;7.25;;;5.90;99.90;;;;;;5053995;28;20040;-45
2023/05/04 03:51:55;;;;;;;7.38;4.65;;;5.90;99.90;;;;;;5040242;28;20067;-46
2023/05/04 03:54:22;;;;;;;17.30;7.10;;;5.90;99.90;;;;;;5032211;28;20049;-46
2023/05/04 03:56:49;;;;;;;12.98;7.45;;;5.90;99.90;;;;;;5057519;28;20448;-46
2023/05/04 03:59:16;;;;;;;15.48;7.15;;;5.90;99.90;;;;;;5053474;28;20131;-47
2023/05/04 04:01:44;;;;;;;12.10;6.93;;;5.80;99.90;;;;;;5038622;28;20053;-46
2023/05/04 04:04:10;;;;;;;12.73;7.10;;;5.90;99.90;;;;;;5046560;28;20073;-46
2023/05/04 04:06:37;;;;;;;11.75;7.45;;;5.90;99.90;;;;;;5052424;28;20554;-46
2023/05/04 04:09:06;;;;;;;9.05;6.47;;;5.90;99.90;;;;;;5053336;28;20064;-46
2023/05/04 04:11:33;;;;;;;12.57;7.18;;;5.90;99.90;;;;;;5040810;28;20043;-46
2023/05/04 04:14:00;;;;;;;12.52;7.30;;;6.00;99.90;;;;;;5053582;28;20247;-46
2023/05/04 04:16:27;;;;;;;16.17;6.63;;;6.00;99.90;;;;;;5052826;28;20037;-45
2023/05/04 04:18:54;;;;;;;12.18;6.82;;;6.00;99.90;;;;;;5049916;28;20037;-45
2023/05/04 04:21:20;;;;;;;11.13;6.32;;;6.00;99.90;;;;;;5051309;28;20041;-46
2023/05/04 04:23:47;;;;;;;16.70;8.05;;;6.10;99.90;;;;;;5050983;28;20520;-47
2023/05/04 04:26:14;;;;;;;12.57;8.02;;;6.10;99.90;;;;;;5051341;28;20451;-46
2023/05/04 04:28:43;;;;;;;14.68;8.77;;;6.10;99.90;;;;;;5062857;28;20098;-46
2023/05/04 04:31:10;;;;;;;16.58;9.00;;;6.10;99.90;;;;;;5060766;28;20049;-46
2023/05/04 04:33:37;;;;;;;18.67;9.60;;;6.20;99.90;;;;;;5052325;28;20103;-46
2023/05/04 04:36:03;;;;;;;19.35;10.10;;;6.20;99.90;;;;;;5069374;28;20130;-46
2023/05/04 04:38:30;;;;;;;22.58;9.80;;;6.20;99.90;;;;;;5064697;28;20075;-46
2023/05/04 04:40:57;;;;;;;21.60;10.13;;;6.20;99.90;;;;;;5051214;28;20041;-46
2023/05/04 04:43:23;;;;;;;19.90;9.88;;;6.30;99.90;;;;;;5054583;28;20041;-47
2023/05/04 04:45:52;;;;;;;33.45;8.95;;;6.30;99.90;;;;;;5060658;28;20118;-46
2023/05/04 04:48:20;;;;;;;20.38;8.45;;;6.30;99.90;;;;;;5048231;28;20051;-46
2023/05/04 04:50:47;;;;;;;16.40;8.13;;;6.50;99.90;;;;;;5040175;28;20037;-46
2023/05/04 04:53:14;;;;;;;17.95;9.35;;;6.50;99.90;;;;;;5066664;28;20037;-47
2023/05/04 04:55:41;;;;;;;19.95;9.93;;;6.60;99.90;;;;;;5047612;28;20623;-46
2023/05/04 04:58:08;;;;;;;14.45;7.95;;;6.70;99.90;;;;;;5049377;28;20040;-46
2023/05/04 05:00:35;;;;;;;13.13;8.07;;;6.90;99.90;;;;;;5046893;28;20056;-46
2023/05/04 05:03:03;;;;;;;12.38;7.07;;;7.20;99.90;;;;;;5054547;28;20088;-46
2023/05/04 05:05:30;;;;;;;10.02;6.97;;;7.30;99.90;;;;;;5070709;28;20044;-47
2023/05/04 05:07:57;;;;;;;11.32;6.25;;;7.20;99.90;;;;;;5063427;28;20051;-47
2023/05/04 05:10:24;;;;;;;11.13;7.40;;;7.20;99.90;;;;;;5048681;28;20449;-46
2023/05/04 05:12:51;;;;;;;10.00;6.93;;;7.20;99.90;;;;;;5049401;28;20076;-46
2023/05/04 05:15:18;;;;;;;13.48;7.75;;;7.20;99.90;;;;;;5055901;28;20123;-46
2023/05/04 05:17:44;;;;;;;12.02;8.43;;;7.20;99.90;;;;;;5042394;28;20090;-46
2023/05/04 05:20:12;;;;;;;12.70;7.80;;;7.20;99.90;;;;;;5057308;28;20149;-46
2023/05/04 05:22:40;;;;;;;9.75;6.63;;;7.30;99.90;;;;;;5066299;28;20114;-46
2023/05/04 05:25:07;;;;;;;9.90;6.47;;;7.30;99.90;;;;;;5064129;28;20040;-46
2023/05/04 05:27:35;;;;;;;10.52;6.40;;;7.30;99.90;;;;;;5053681;28;20064;-46
2023/05/04 05:30:04;;;;;;;10.82;6.78;;;7.40;99.90;;;;;;5066183;28;20094;-46
2023/05/04 05:32:32;;;;;;;9.85;6.43;;;7.40;99.90;;;;;;5058764;28;20037;-46
2023/05/04 05:34:58;;;;;;;12.98;6.57;;;7.50;99.90;;;;;;5049796;28;20075;-46
2023/05/04 05:37:26;;;;;;;9.52;6.05;;;7.60;99.90;;;;;;5050372;28;20459;-46
2023/05/04 05:39:53;;;;;;;11.75;5.57;;;7.70;99.90;;;;;;5055132;28;20085;-46
2023/05/04 05:42:20;;;;;;;10.27;6.07;;;7.70;99.90;;;;;;5058018;28;20048;-46
2023/05/04 05:44:46;;;;;;;9.73;6.25;;;7.70;99.90;;;;;;5050407;28;20447;-47
2023/05/04 05:47:13;;;;;;;11.23;6.63;;;7.70;99.90;;;;;;5050007;28;20065;-46
2023/05/04 05:49:40;;;;;;;11.75;5.78;;;7.80;99.90;;;;;;5046648;28;20065;-46
2023/05/04 05:52:10;;;;;;;8.38;6.20;;;7.90;99.90;;;;;;5049678;28;20043;-46
2023/05/04 05:54:37;;;;;;;10.32;5.85;;;8.00;99.90;;;;;;5062379;28;20036;-46
2023/05/04 05:57:04;;;;;;;11.48;6.00;;;8.00;99.90;;;;;;5055026;28;20571;-46
2023/05/04 05:59:30;;;;;;;8.93;6.07;;;8.10;99.90;;;;;;5032077;28;20693;-47
2023/05/04 06:01:57;;;;;;;13.63;6.30;;;8.10;99.90;;;;;;5044942;28;20140;-46
2023/05/04 06:04:24;;;;;;;13.00;6.20;;;8.20;99.90;;;;;;5050367;28;20037;-46
2023/05/04 06:06:51;;;;;;;8.82;6.25;;;8.20;99.90;;;;;;5046699;28;20049;-46
2023/05/04 06:09:18;;;;;;;8.38;5.82;;;8.30;99.90;;;;;;5054510;28;20094;-46
2023/05/04 06:11:45;;;;;;;7.75;5.97;;;8.40;99.90;;;;;;5056712;28;20065;-46
2023/05/04 06:14:11;;;;;;;7.70;5.32;;;8.40;99.90;;;;;;5053904;28;20068;-45
2023/05/04 06:16:38;;;;;;;5.97;4.63;;;8.50;99.90;;;;;;5055807;28;20036;-46
2023/05/04 06:19:05;;;;;;;14.93;6.13;;;8.60;99.90;;;;;;5073311;28;20036;-46
2023/05/04 06:21:32;;;;;;;11.10;6.20;;;8.70;99.90;;;;;;5053550;28;20045;-46
2023/05/04 06:23:58;;;;;;;13.15;5.80;;;8.90;99.90;;;;;;5069088;28;20543;-46
2023/05/04 06:26:25;;;;;;;10.05;5.82;;;9.10;99.90;;;;;;5052383;28;20095;-46
2023/05/04 06:28:52;;;;;;;8.18;5.80;;;9.20;99.90;;;;;;5053065;28;20041;-46
2023/05/04 06:31:19;;;;;;;10.43;6.32;;;9.40;99.90;;;;;;5049039;28;20434;-46
2023/05/04 06:33:45;;;;;;;13.70;6.38;;;9.50;99.90;;;;;;5052858;28;20053;-47
2023/05/04 06:36:13;;;;;;;7.55;5.95;;;9.60;99.90;;;;;;5063131;28;20504;-46
2023/05/04 06:38:39;;;;;;;8.13;5.68;;;9.80;99.90;;;;;;5071379;28;20051;-46
2023/05/04 06:41:06;;;;;;;9.00;6.15;;;9.90;99.90;;;;;;5053335;28;20115;-46
2023/05/04 06:43:33;;;;;;;7.25;4.85;;;10.00;99.90;;;;;;5044135;28;20051;-47
2023/05/04 06:46:03;;;;;;;8.52;5.03;;;10.10;99.90;;;;;;5071431;28;20466;-47
2023/05/04 06:48:30;;;;;;;9.45;5.68;;;10.30;99.90;;;;;;5067760;28;20057;-45
2023/05/04 06:50:57;;;;;;;7.07;4.90;;;10.50;99.90;;;;;;5053755;28;20045;-46
2023/05/04 06:53:28;;;;;;;8.40;5.70;;;10.60;99.90;;;;;;5037797;28;20393;-46
2023/05/04 06:55:55;;;;;;;8.23;5.28;;;10.80;99.90;;;;;;5070560;28;20040;-47
2023/05/04 06:58:22;;;;;;;8.95;5.68;;;11.00;99.90;;;;;;5066710;28;20040;-46
2023/05/04 07:00:49;;;;;;;9.73;4.93;;;11.30;99.90;;;;;;5050282;28;20045;-46
2023/05/04 07:03:16;;;;;;;;;;;11.50;99.90;;;;;;5052660;28;20521;-46
2023/05/04 07:05:47;;;;;;;6.38;4.60;;;11.70;99.90;;;;;;5073173;28;19921;-47
2023/05/04 07:08:14;;;;;;;8.13;5.00;;;11.80;99.90;;;;;;5044993;28;20489;-46
2023/05/04 07:10:41;;;;;;;6.72;4.57;;;11.90;99.90;;;;;;5051191;28;20099;-46
2023/05/04 07:13:08;;;;;;;7.40;4.68;;;11.80;99.90;;;;;;5050019;28;20091;-48
2023/05/04 07:15:35;;;;;;;8.57;4.95;;;11.90;99.90;;;;;;5048126;28;20037;-46
2023/05/04 07:18:02;;;;;;;6.10;4.38;;;11.80;99.90;;;;;;5049361;28;20045;-47
2023/05/04 07:20:29;;;;;;;6.03;4.55;;;12.00;99.90;;;;;;5051052;28;20127;-47
2023/05/04 07:22:55;;;;;;;5.85;4.47;;;12.10;99.90;;;;;;5043550;28;20567;-46
2023/05/04 07:25:26;;;;;;;8.60;4.68;;;12.20;99.90;;;;;;5061116;28;20040;-47
2023/05/04 07:27:53;;;;;;;8.80;4.60;;;12.40;99.90;;;;;;5051199;28;20079;-48
2023/05/04 07:30:20;;;;;;;7.32;4.10;;;12.40;99.90;;;;;;5052398;28;20427;-47
2023/05/04 07:32:47;;;;;;;11.55;4.50;;;12.50;99.90;;;;;;5051226;28;20037;-47
2023/05/04 07:35:14;;;;;;;7.97;4.22;;;12.60;99.90;;;;;;5072428;28;20045;-46
2023/05/04 07:37:40;;;;;;;9.75;4.20;;;12.70;99.90;;;;;;5063058;28;20109;-47
2023/05/04 07:40:08;;;;;;;9.65;4.95;;;12.80;99.90;;;;;;5071890;28;20045;-46
2023/05/04 07:42:35;;;;;;;6.13;4.03;;;12.90;99.90;;;;;;5057958;28;20053;-46
2023/05/04 07:45:02;;;;;;;4.80;3.65;;;13.10;99.90;;;;;;5050953;28;20072;-47
2023/05/04 07:47:29;;;;;;;;;;;13.30;99.90;;;;;;5050387;28;20497;-45
2023/05/04 07:49:55;;;;;;;7.18;3.97;;;13.00;99.90;;;;;;5071245;28;19920;-47
2023/05/04 07:52:22;;;;;;;7.90;4.22;;;13.40;99.90;;;;;;5057703;28;20053;-47
2023/05/04 07:54:53;;;;;;;8.50;4.38;;;13.50;99.90;;;;;;5044188;28;20046;-47
2023/05/04 07:57:20;;;;;;;6.32;3.78;;;13.60;99.90;;;;;;5059037;28;20079;-46
2023/05/04 07:59:47;;;;;;;6.78;3.53;;;13.70;99.90;;;;;;5071116;28;20064;-46
2023/05/04 08:02:14;;;;;;;6.75;4.05;;;13.70;99.90;;;;;;5064076;28;20304;-46
2023/05/04 08:04:41;;;;;;;4.82;3.72;;;13.70;99.90;;;;;;5071223;28;20064;-46
2023/05/04 08:07:08;;;;;;;5.50;4.10;;;13.80;99.90;;;;;;5049286;28;20038;-46
2023/05/04 08:09:34;;;;;;;7.22;3.78;;;13.90;99.90;;;;;;5070868;28;20043;-46
2023/05/04 08:12:03;;;;;;;7.30;3.60;;;14.00;99.90;;;;;;5052657;28;20110;-46
2023/05/04 08:14:29;;;;;;;3.75;2.80;;;14.10;99.90;;;;;;5045936;28;20080;-46
2023/05/04 08:16:56;;;;;;;3.85;3.25;;;14.30;99.90;;;;;;5051747;28;20040;-46
2023/05/04 08:19:23;;;;;;;3.63;3.10;;;14.30;99.90;;;;;;5070972;28;20045;-46
2023/05/04 08:21:50;;;;;;;4.20;2.75;;;14.40;99.90;;;;;;5051672;28;20045;-47
2023/05/04 08:24:17;;;;;;;4.72;2.83;;;14.60;99.90;;;;;;5051216;28;20048;-46
2023/05/04 08:26:44;;;;;;;5.38;3.40;;;14.80;99.90;;;;;;5049950;28;20040;-47
2023/05/04 08:29:21;;;;;;;3.67;3.28;;;14.90;99.90;;;;;;5032365;28;20049;-47
2023/05/04 08:31:48;;;;;;;5.82;2.97;;;15.00;99.90;;;;;;5044328;28;20045;-46
2023/05/04 08:34:15;;;;;;;5.30;3.30;;;15.20;99.90;;;;;;5067369;28;20668;-46
2023/05/04 08:36:42;;;;;;;5.65;4.15;;;15.40;99.90;;;;;;5046018;28;20045;-48
2023/05/04 08:39:10;;;;;;;4.95;3.40;;;15.30;99.90;;;;;;5066332;28;20568;-48
2023/05/04 08:41:40;;;;;;;9.38;3.58;;;15.40;99.90;;;;;;5071012;28;20125;-46
2023/05/04 08:44:09;;;;;;;4.88;3.30;;;15.50;99.90;;;;;;5065514;28;20520;-47
2023/05/04 08:46:38;;;;;;;4.40;3.40;;;15.70;99.90;;;;;;5050016;28;20036;-46
2023/05/04 08:49:06;;;;;;;4.50;3.10;;;15.80;99.90;;;;;;5049924;28;20111;-47
2023/05/04 08:51:35;;;;;;;8.13;3.80;;;15.90;99.90;;;;;;5063139;28;20068;-47
2023/05/04 08:54:08;;;;;;;5.78;3.33;;;15.80;99.90;;;;;;5095131;22;20055;-45
2023/05/04 08:56:37;;;;;;;3.13;2.70;;;16.00;99.90;;;;;;5101572;28;20048;-46
2023/05/04 08:59:04;;;;;;;5.15;2.97;;;16.10;99.90;;;;;;5100170;28;20040;-46
2023/05/04 09:01:32;;;;;;;3.97;2.90;;;16.20;99.90;;;;;;5090840;28;20071;-45
2023/05/04 09:04:01;;;;;;;3.20;2.90;;;16.40;99.90;;;;;;5088758;28;20551;-45
2023/05/04 09:06:28;;;;;;;3.45;2.63;;;16.40;99.90;;;;;;5088039;28;20497;-45
2023/05/04 09:08:55;;;;;;;3.75;2.85;;;16.30;99.90;;;;;;5077810;28;20036;-46
2023/05/04 09:11:22;;;;;;;2.92;2.60;;;16.30;99.90;;;;;;5070790;28;20382;-46
2023/05/04 09:13:48;;;;;;;5.63;2.92;;;16.40;99.90;;;;;;5081104;28;20082;-47
2023/05/04 09:16:15;;;;;;;5.88;2.70;;;16.70;99.90;;;;;;5083980;28;20488;-46
2023/05/04 09:18:43;;;;;;;4.72;2.78;;;16.80;99.90;;;;;;5082414;28;20480;-46
2023/05/04 09:21:10;;;;;;;3.88;2.85;;;17.00;99.90;;;;;;5070739;28;20397;-47
2023/05/04 09:23:52;;;;;;;3.30;2.47;;;17.00;99.90;;;;;;5083831;28;20040;-45
2023/05/04 09:26:29;;;;;;;3.35;2.60;;;17.00;99.90;;;;;;5082967;28;20801;-45
2023/05/04 09:29:09;;;;;;;3.03;2.67;;;17.20;99.90;;;;;;5089599;28;20097;-46
2023/05/04 09:31:46;;;;;;;3.70;2.53;;;17.30;99.90;;;;;;5086029;28;20554;-47
2023/05/04 09:34:13;;;;;;;3.75;2.40;;;17.40;99.90;;;;;;5090552;28;20040;-45
2023/05/04 09:36:41;;;;;;;3.90;2.78;;;17.50;99.90;;;;;;5087720;28;20040;-46
2023/05/04 09:39:11;;;;;;;;;;;17.60;99.90;;;;;;5090768;28;20044;-46
2023/05/04 09:41:38;;;;;;;4.60;2.78;;;17.70;99.90;;;;;;5088878;28;20467;-46
2023/05/04 09:44:16;;;;;;;4.05;2.47;;;17.70;99.90;;;;;;5092005;28;20036;-46
2023/05/04 09:46:54;;;;;;;3.17;2.80;;;17.70;99.90;;;;;;5088949;28;20554;-46
2023/05/04 09:49:34;;;;;;;3.63;2.88;;;17.90;99.90;;;;;;5067418;28;20051;-46
2023/05/04 09:52:02;;;;;;;5.07;3.03;;;17.90;99.90;;;;;;5090148;28;20071;-45
2023/05/04 09:54:37;;;;;;;3.50;2.80;;;17.90;99.90;;;;;;5074023;28;20036;-46
2023/05/04 09:57:13;;;;;;;3.50;2.83;;;17.70;99.90;;;;;;5085676;28;20036;-46
2023/05/04 09:59:41;;;;;;;5.15;2.78;;;17.70;99.90;;;;;;5088715;28;20101;-45
2023/05/04 10:02:10;;;;;;;3.63;3.13;;;17.50;99.90;;;;;;5092186;28;20565;-46
2023/05/04 10:04:50;;;;;;;3.00;2.70;;;17.60;99.90;;;;;;5094535;28;20047;-47
2023/05/04 10:07:17;;;;;;;3.72;2.80;;;17.90;99.90;;;;;;5092087;28;20067;-45
2023/05/04 10:09:47;;;;;;;5.20;2.90;;;18.10;99.90;;;;;;5093533;28;20109;-46
2023/05/04 10:12:14;;;;;;;3.00;2.47;;;18.20;99.90;;;;;;5088512;28;20040;-46
2023/05/04 10:14:45;;;;;;;5.38;2.83;;;18.40;99.70;;;;;;5093637;28;20036;-46
2023/05/04 10:17:37;;;;;;;4.65;2.30;;;18.50;99.90;;;;;;5093407;28;20111;-46
2023/05/04 10:20:07;;;;;;;5.28;2.58;;;18.50;98.60;;;;;;5092336;28;20048;-45
2023/05/04 10:22:52;;;;;;;3.08;2.40;;;18.40;99.90;;;;;;5094496;28;20101;-47
2023/05/04 10:25:39;;;;;;;4.22;2.85;;;18.50;99.90;;;;;;5091077;28;20078;-49
2023/05/04 10:28:21;;;;;;;2.75;2.42;;;18.50;99.90;;;;;;5094044;28;20044;-45
2023/05/04 10:30:53;;;;;;;3.67;2.50;;;18.60;99.90;;;;;;5093253;28;20048;-46
2023/05/04 10:33:20;;;;;;;3.00;2.17;;;18.70;99.90;;;;;;5087971;28;20044;-45
2023/05/04 10:35:53;;;;;;;5.68;2.70;;;18.70;99.10;;;;;;5093316;28;20393;-46
2023/05/04 10:38:32;;;;;;;3.78;2.80;;;18.70;99.90;;;;;;5087465;28;20040;-45
2023/05/04 10:40:58;;;;;;;3.08;2.42;;;18.80;99.90;;;;;;5084207;28;20064;-46
2023/05/04 10:43:27;;;;;;;6.30;2.90;;;18.90;99.90;;;;;;5076745;28;20093;-46
2023/05/04 10:45:56;;;;;;;2.78;2.50;;;19.20;99.90;;;;;;5075905;28;20459;-46
2023/05/04 10:48:34;;;;;;;2.65;2.40;;;19.40;98.20;;;;;;5059301;28;20381;-46
2023/05/04 10:51:00;;;;;;;5.50;2.33;;;19.40;97.20;;;;;;5090992;28;20036;-47
2023/05/04 10:53:31;;;;;;;3.80;2.80;;;19.50;95.80;;;;;;5091535;28;20075;-46
2023/05/04 10:55:58;;;;;;;3.55;2.50;;;19.60;97.30;;;;;;5093628;28;20489;-45
2023/05/04 10:58:29;;;;;;;4.47;2.83;;;19.70;98.10;;;;;;5085236;28;20040;-47
2023/05/04 11:00:55;;;;;;;2.90;2.60;;;19.70;96.60;;;;;;5093733;28;20086;-46
2023/05/04 11:03:23;;;;;;;5.25;2.55;;;19.70;97.70;;;;;;5092472;28;20044;-46
2023/05/04 11:05:53;;;;;;;3.05;2.75;;;19.80;98.20;;;;;;5089733;28;20048;-46
2023/05/04 11:08:25;;;;;;;5.10;2.63;;;20.00;98.10;;;;;;5091656;28;20044;-46
2023/05/04 11:11:06;;;;;;;2.20;1.95;;;20.00;95.90;;;;;;5079550;28;20055;-45
2023/05/04 11:13:34;;;;;;;2.75;2.17;;;20.00;96.70;;;;;;5085876;28;20079;-46
2023/05/04 11:16:01;;;;;;;4.30;2.60;;;20.00;95.90;;;;;;5092249;28;20068;-46
2023/05/04 11:18:36;;;;;;;2.78;2.05;;;20.10;95.50;;;;;;5085998;28;20040;-45
2023/05/04 11:21:03;;;;;;;2.65;2.03;;;20.30;94.60;;;;;;5091778;28;20054;-46
2023/05/04 11:23:30;;;;;;;3.42;2.25;;;20.30;94.60;;;;;;5091420;28;20082;-45
2023/05/04 11:25:57;;;;;;;2.40;2.20;;;20.30;94.70;;;;;;5087008;28;20044;-47
2023/05/04 11:28:36;;;;;;;4.32;1.77;;;20.40;94.10;;;;;;5087110;28;20048;-45
2023/05/04 11:31:16;;;;;;;4.25;2.10;;;20.40;92.80;;;;;;5072479;28;20090;-45
2023/05/04 11:33:53;;;;;;;3.40;2.15;;;20.50;93.90;;;;;;5087765;28;20047;-48
2023/05/04 11:36:21;;;;;;;3.42;2.05;;;20.50;94.50;;;;;;5092520;28;20126;-46
2023/05/04 11:38:48;;;;;;;5.07;1.60;;;20.60;93.10;;;;;;5087420;28;20060;-46
2023/05/04 11:41:15;;;;;;;;;;;20.60;93.60;;;;;;5092327;28;20471;-46
2023/05/04 11:43:43;;;;;;;2.25;1.75;;;20.60;92.40;;;;;;5091665;28;19974;-46
2023/05/04 11:46:11;;;;;;;2.97;2.17;;;20.50;91.80;;;;;;5092209;28;20056;-46
2023/05/04 11:48:38;;;;;;;2.05;1.60;;;20.60;92.30;;;;;;5090256;28;20416;-46
2023/05/04 11:51:05;;;;;;;;;;;20.60;93.10;;;;;;5092420;28;20136;-49
2023/05/04 11:53:37;;;;;;;3.10;2.00;;;20.60;93.20;;;;;;5085668;28;19920;-46
2023/05/04 11:56:05;;;;;;;2.55;1.92;;;20.60;93.40;;;;;;5090984;28;20044;-46
2023/05/04 11:58:32;;;;;;;2.95;1.65;;;20.80;92.70;;;;;;5092071;28;20048;-46
2023/05/04 12:00:58;;;;;;;2.78;1.80;;;20.80;91.30;;;;;;5091151;28;20551;-46
2023/05/04 12:03:27;;;;;;;4.00;2.08;;;20.90;92.70;;;;;;5092401;28;20105;-46
2023/05/04 12:06:15;;;;;;;3.85;1.90;;;21.00;91.90;;;;;;5091079;28;20480;-47
2023/05/04 12:08:42;;;;;;;3.42;2.10;;;20.90;92.50;;;;;;5086599;28;20119;-45
2023/05/04 12:11:15;;;;;;;3.65;2.53;;;21.00;90.80;;;;;;5090952;28;20040;-45
2023/05/04 12:13:44;;;;;;;8.63;2.38;;;20.90;92.90;;;;;;5087883;28;20055;-46
2023/05/04 12:16:11;;;;;;;1.90;1.75;;;20.90;92.00;;;;;;5091091;28;20169;-46
2023/05/04 12:18:39;;;;;;;3.30;2.05;;;20.90;91.20;;;;;;5090758;28;20044;-46
2023/05/04 12:21:16;;;;;;;3.50;2.63;;;21.00;91.60;;;;;;5090996;28;20405;-46
2023/05/04 12:23:44;;;;;;;4.32;2.50;;;20.90;92.40;;;;;;5087387;28;20064;-47
2023/05/04 12:26:11;;;;;;;2.15;1.95;;;21.00;93.40;;;;;;5090956;28;20074;-46
2023/05/04 12:28:40;;;;;;;3.65;2.10;;;21.10;92.50;;;;;;5091249;28;20093;-46
2023/05/04 12:31:07;;;;;;;2.75;2.30;;;21.20;92.70;;;;;;5086261;28;20058;-45
2023/05/04 12:33:35;;;;;;;3.45;2.22;;;21.20;90.90;;;;;;5091376;28;20044;-46
2023/05/04 12:36:04;;;;;;;2.88;2.58;;;21.10;91.50;;;;;;5090728;28;20035;-48
2023/05/04 12:38:31;;;;;;;3.47;2.35;;;21.20;92.00;;;;;;5090931;28;20417;-45
2023/05/04 12:41:01;;;;;;;;;;;21.20;92.00;;;;;;5089286;28;20040;-45
2023/05/04 12:43:28;;;;;;;4.60;2.80;;;21.10;92.40;;;;;;5087708;28;20356;-46
2023/05/04 12:45:55;;;;;;;;;;;21.20;91.80;;;;;;5082578;28;20173;-46
2023/05/04 12:48:21;;;;;;;3.95;2.45;;;21.20;91.90;;;;;;5070268;28;19926;-47
2023/05/04 12:50:50;;;;;;;3.15;2.33;;;21.20;92.00;;;;;;5081015;28;20060;-45
2023/05/04 12:53:17;;;;;;;7.47;2.90;;;21.30;92.60;;;;;;5081546;28;20032;-45
2023/05/04 12:55:44;;;;;;;3.33;2.35;;;21.30;93.20;;;;;;5074720;28;20123;-47
2023/05/04 12:58:11;;;;;;;3.08;2.78;;;21.40;92.00;;;;;;5069829;28;20074;-46